Airfield :
LOGIN :

Register | Disclaimer

   EN    FR    IT 

 










Legend :    VFR   Marginal VFR   IFR   Intensive IFR   Very Intensive IFR
Visi :
Ceiling :
>= 8 km
>= 3000ft
5 to 8 km
1000 to 3000 ft
1500m to 5 km
500 to 1000 ft
800 to 1500m
200 to 500 ft
< 800m
< 200 ft
Symbols :   Thunderstorms  Fog  Heavy snow  Heavy precipitations  Wind > 20 kt
SIGMETs :     Misc.  Thunderstorms  Icing  Turbulence  Mountain Waves  Volcanic Ashes






- Airport Elevation : 33 ft
- IATA code : MHZ


EGUN - RAF Mildenhall

CURRENT METAR :
  • 060956Z AUTO 23016G22KT 9999 OVC015 12/12 A2959 RMK AO2 SLP023 T01190119 .

EXPIRED METARs :
  • 060942Z AUTO 23015G22KT 9999 OVC015 12/12 A2959 RMK AO2 SLP023 $
  • 060911Z AUTO 22016G22KT 9999 OVC014 11/11 A2959 RMK AO2 OVC V BKN CIG 013 RWY11 SLP023 $
  • 060856Z AUTO 22018G23KT 9999 OVC015 11/11 A2959 RMK AO2 RAE16 SLP023 P0000 60015 T01140114 57020 $
  • 060832Z AUTO 22016KT 9999 BKN016 BKN036 BKN043 OVC070 11/11 A2960 RMK AO2 RAE16 CIG 016V041 SLP027 $
  • 060822Z AUTO 22017G25KT 9999 FEW010 SCT014 BKN041 BKN055 OVC070 11/11 A2960 RMK AO2 RAE16 SLP027 $
  • 060801Z AUTO 22015KT 9999 -RA SCT011 BKN041 OVC065 11/11 A2960 RMK AO2 SLP027 $

TAF AMD TAF EGUN
Valid from the 06 at 06:00 until the 07 at 10:00 UTC


060630Z 0606/0710 22015G25KT 9999 BKN020 QNH2983INS
TEMPO 0606/0609 BKN015
BECMG 0608/0609 23015G25KT 9000 -RA BKN010 QNH2956INS
TEMPO 0609/0613 BKN009
BECMG 0612/0613 23015G25KT 9999 NSW BKN010 QNH2952INS
BECMG 0616/0617 27015G20KT 9000 -SHRA BKN020 QNH2955INS
BECMG 0620/0621 27015G20KT 9999 NSW BKN020 QNH2956INS TX12/0613Z TN08/0622Z



MET'MAP, your aeronautical weather chart ! - Copyright ORBIFLY December 2007 - Disclaimer

ORBIFLY MET'MAP TEAM :

Programming & Development : Alexandra Zaïnal
Concept & original design : Baudouin d'Aumeries
Assistance for programming : Marc-Olivier Méhu
Technical & hardware support : Manuel Goepfert

Contact : metmap@orbifly.com




SOURCES & CREDITS :

   NOAA